sensor_id;sensor_type;location;lat;lon;timestamp;pressure;altitude;pressure_sealevel;temperature;humidity
12073;BME280;6098;49.004;8.372;2024-01-15T00:07:51;99553.63;;;-0.53;78.57
12073;BME280;6098;49.004;8.372;2024-01-15T00:22:43;99547.08;;;-0.50;78.84
12073;BME280;6098;49.004;8.372;2024-01-15T00:37:34;99533.14;;;-0.42;79.00
12073;BME280;6098;49.004;8.372;2024-01-15T00:52:24;99516.28;;;-0.51;79.67
12073;BME280;6098;49.004;8.372;2024-01-15T01:07:13;99498.03;;;-0.47;79.85
12073;BME280;6098;49.004;8.372;2024-01-15T01:22:03;99499.44;;;-0.57;80.33
12073;BME280;6098;49.004;8.372;2024-01-15T01:36:52;99498.94;;;-0.50;80.61
12073;BME280;6098;49.004;8.372;2024-01-15T01:51:43;99499.34;;;-0.46;80.54
12073;BME280;6098;49.004;8.372;2024-01-15T02:06:33;99492.81;;;-0.44;80.70
12073;BME280;6098;49.004;8.372;2024-01-15T02:21:23;99475.02;;;-0.45;80.83
12073;BME280;6098;49.004;8.372;2024-01-15T02:36:14;99466.36;;;-0.46;80.91
12073;BME280;6098;49.004;8.372;2024-01-15T02:51:05;99477.99;;;-0.36;80.85
12073;BME280;6098;49.004;8.372;2024-01-15T03:05:54;99471.42;;;-0.32;80.71
12073;BME280;6098;49.004;8.372;2024-01-15T03:20:44;99468.31;;;-0.24;80.68
12073;BME280;6098;49.004;8.372;2024-01-15T03:35:35;99457.89;;;-0.24;80.86
12073;BME280;6098;49.004;8.372;2024-01-15T03:50:27;99446.94;;;-0.11;80.98
12073;BME280;6098;49.004;8.372;2024-01-15T04:05:18;99428.17;;;-0.06;81.49
12073;BME280;6098;49.004;8.372;2024-01-15T04:20:10;99394.75;;;-0.05;82.02
12073;BME280;6098;49.004;8.372;2024-01-15T04:35:01;99364.80;;;-0.05;82.97
12073;BME280;6098;49.004;8.372;2024-01-15T04:49:50;99384.03;;;-0.16;83.69
12073;BME280;6098;49.004;8.372;2024-01-15T05:04:40;99346.20;;;-0.11;83.95
12073;BME280;6098;49.004;8.372;2024-01-15T05:19:31;99336.99;;;-0.03;84.20
12073;BME280;6098;49.004;8.372;2024-01-15T05:34:22;99333.50;;;-0.01;84.67
12073;BME280;6098;49.004;8.372;2024-01-15T05:49:11;99339.03;;;0.06;85.34
12073;BME280;6098;49.004;8.372;2024-01-15T06:04:01;99286.56;;;0.02;86.00
12073;BME280;6098;49.004;8.372;2024-01-15T06:18:53;99307.39;;;0.03;86.19
12073;BME280;6098;49.004;8.372;2024-01-15T06:33:44;99331.58;;;0.13;86.27
12073;BME280;6098;49.004;8.372;2024-01-15T06:48:34;99329.78;;;0.15;86.29
12073;BME280;6098;49.004;8.372;2024-01-15T07:03:25;99326.30;;;0.18;86.34
12073;BME280;6098;49.004;8.372;2024-01-15T07:18:25;99330.06;;;0.28;85.68
12073;BME280;6098;49.004;8.372;2024-01-15T07:33:16;99343.55;;;0.26;85.35
12073;BME280;6098;49.004;8.372;2024-01-15T07:48:06;99343.42;;;0.34;84.98
12073;BME280;6098;49.004;8.372;2024-01-15T08:02:57;99342.00;;;0.41;85.41
12073;BME280;6098;49.004;8.372;2024-01-15T08:17:47;99331.84;;;0.54;85.75
12073;BME280;6098;49.004;8.372;2024-01-15T08:32:37;99308.25;;;0.61;85.70
12073;BME280;6098;49.004;8.372;2024-01-15T08:47:29;99316.27;;;0.75;84.53
12073;BME280;6098;49.004;8.372;2024-01-15T09:02:19;99325.61;;;0.89;84.11
12073;BME280;6098;49.004;8.372;2024-01-15T09:17:10;99302.36;;;1.01;83.26
12073;BME280;6098;49.004;8.372;2024-01-15T09:32:01;99293.43;;;1.14;82.17
12073;BME280;6098;49.004;8.372;2024-01-15T09:46:52;99290.28;;;1.19;80.96
12073;BME280;6098;49.004;8.372;2024-01-15T10:01:44;99269.25;;;1.27;82.47
12073;BME280;6098;49.004;8.372;2024-01-15T10:16:35;99246.60;;;1.28;84.91
12073;BME280;6098;49.004;8.372;2024-01-15T10:31:27;99242.69;;;1.29;88.41
12073;BME280;6098;49.004;8.372;2024-01-15T10:46:18;99227.53;;;1.25;92.61
12073;BME280;6098;49.004;8.372;2024-01-15T11:01:09;99213.03;;;1.32;95.63
12073;BME280;6098;49.004;8.372;2024-01-15T11:16:04;99225.36;;;1.24;97.24
12073;BME280;6098;49.004;8.372;2024-01-15T11:30:56;99215.28;;;1.29;97.85
12073;BME280;6098;49.004;8.372;2024-01-15T11:45:46;99221.53;;;1.42;98.01
12073;BME280;6098;49.004;8.372;2024-01-15T12:15:46;99232.48;;;1.60;98.91
12073;BME280;6098;49.004;8.372;2024-01-15T12:30:36;99243.00;;;1.76;98.43
12073;BME280;6098;49.004;8.372;2024-01-15T12:45:27;99241.53;;;1.84;98.54
12073;BME280;6098;49.004;8.372;2024-01-15T13:00:18;99240.59;;;2.06;98.46
12073;BME280;6098;49.004;8.372;2024-01-15T13:15:09;99253.83;;;2.16;97.94
12073;BME280;6098;49.004;8.372;2024-01-15T13:30:06;99261.93;;;2.25;97.08
12073;BME280;6098;49.004;8.372;2024-01-15T13:44:58;99275.48;;;2.23;96.45
12073;BME280;6098;49.004;8.372;2024-01-15T13:59:48;99291.20;;;2.21;95.97
12073;BME280;6098;49.004;8.372;2024-01-15T14:14:40;99327.20;;;2.29;94.36
12073;BME280;6098;49.004;8.372;2024-01-15T14:29:32;99340.55;;;2.35;92.91
12073;BME280;6098;49.004;8.372;2024-01-15T14:44:41;99364.42;;;2.40;90.68
12073;BME280;6098;49.004;8.372;2024-01-15T14:59:32;99391.36;;;2.43;88.53
12073;BME280;6098;49.004;8.372;2024-01-15T15:14:22;99405.00;;;2.37;86.53
12073;BME280;6098;49.004;8.372;2024-01-15T15:29:14;99409.56;;;2.29;86.44
12073;BME280;6098;49.004;8.372;2024-01-15T15:44:04;99437.09;;;2.24;85.17
12073;BME280;6098;49.004;8.372;2024-01-15T15:58:56;99456.22;;;2.25;85.54
12073;BME280;6098;49.004;8.372;2024-01-15T16:13:47;99472.09;;;2.18;86.38
12073;BME280;6098;49.004;8.372;2024-01-15T16:28:36;99506.19;;;2.12;86.03
12073;BME280;6098;49.004;8.372;2024-01-15T16:43:27;99532.83;;;2.08;83.94
12073;BME280;6098;49.004;8.372;2024-01-15T16:58:18;99560.67;;;2.09;84.22
12073;BME280;6098;49.004;8.372;2024-01-15T17:13:08;99569.62;;;1.96;83.35
12073;BME280;6098;49.004;8.372;2024-01-15T17:27:59;99586.80;;;1.84;82.37
12073;BME280;6098;49.004;8.372;2024-01-15T17:42:49;99623.22;;;1.94;81.17
12073;BME280;6098;49.004;8.372;2024-01-15T17:57:40;99626.27;;;1.95;80.31
12073;BME280;6098;49.004;8.372;2024-01-15T18:12:32;99646.70;;;1.95;80.27
12073;BME280;6098;49.004;8.372;2024-01-15T18:27:21;99661.92;;;1.98;78.84
12073;BME280;6098;49.004;8.372;2024-01-15T18:42:11;99685.06;;;1.95;78.20
12073;BME280;6098;49.004;8.372;2024-01-15T18:57:01;99690.32;;;1.93;77.46
12073;BME280;6098;49.004;8.372;2024-01-15T19:11:52;99700.05;;;1.84;76.44
12073;BME280;6098;49.004;8.372;2024-01-15T19:26:42;99701.38;;;1.82;75.94
12073;BME280;6098;49.004;8.372;2024-01-15T19:41:33;99725.90;;;1.72;75.78
12073;BME280;6098;49.004;8.372;2024-01-15T19:56:22;99723.83;;;1.65;75.50
12073;BME280;6098;49.004;8.372;2024-01-15T20:11:14;99755.88;;;1.41;75.72
12073;BME280;6098;49.004;8.372;2024-01-15T20:26:04;99773.47;;;1.27;76.78
12073;BME280;6098;49.004;8.372;2024-01-15T20:40:54;99797.06;;;1.18;77.50
12073;BME280;6098;49.004;8.372;2024-01-15T20:55:44;99811.42;;;1.18;77.50
12073;BME280;6098;49.004;8.372;2024-01-15T21:10:36;99812.25;;;1.21;77.45
12073;BME280;6098;49.004;8.372;2024-01-15T21:25:26;99811.23;;;1.34;77.12
12073;BME280;6098;49.004;8.372;2024-01-15T21:40:16;99829.53;;;1.32;75.87
12073;BME280;6098;49.004;8.372;2024-01-15T21:55:13;99838.77;;;1.23;75.56
12073;BME280;6098;49.004;8.372;2024-01-15T22:10:11;99846.11;;;1.29;74.83
12073;BME280;6098;49.004;8.372;2024-01-15T22:25:03;99881.82;;;1.25;74.64
12073;BME280;6098;49.004;8.372;2024-01-15T22:39:55;99892.32;;;1.16;74.43
12073;BME280;6098;49.004;8.372;2024-01-15T22:54:46;99920.09;;;1.27;74.03
12073;BME280;6098;49.004;8.372;2024-01-15T23:09:36;99915.75;;;1.24;74.36
12073;BME280;6098;49.004;8.372;2024-01-15T23:24:26;99926.28;;;1.13;74.28
12073;BME280;6098;49.004;8.372;2024-01-15T23:39:16;99931.94;;;1.13;74.26
12073;BME280;6098;49.004;8.372;2024-01-15T23:54:08;99932.74;;;1.23;73.26
